Time;durP1;ratioP1;P1;durP2;ratioP2;P2;SDS_P1;SDS_P2;PMS_P1;PMS_P2;Temp;Humidity;BMP_temperature;BMP_pressure;BME280_temperature;BME280_humidity;BME280_pressure;Samples;Min_cycle;Max_cycle;Signal;HPM_P1;HPM_P2
2022/04/12 00:00:00;;;;;;;31.70;24.30;;;;;;;3.29;100.00;99366.78;2067407;28;20200;-69
2022/04/12 00:01:04;;;;;;;28.23;24.40;;;;;;;3.31;100.00;99375.28;2067442;28;20552;-69
2022/04/12 00:02:05;;;;;;;28.40;24.70;;;;;;;3.30;100.00;99372.88;2067532;28;20204;-69
2022/04/12 00:03:09;;;;;;;35.78;25.67;;;;;;;3.28;100.00;99369.69;2067328;28;20193;-69
2022/04/12 00:04:11;;;;;;;28.65;24.27;;;;;;;3.29;100.00;99376.53;2067340;28;20196;-69
2022/04/12 00:05:12;;;;;;;31.02;24.33;;;;;;;3.29;100.00;99376.53;2067309;28;20729;-69
2022/04/12 00:06:14;;;;;;;27.33;23.30;;;;;;;3.26;100.00;99375.19;2066864;28;20244;-69
2022/04/12 00:07:15;;;;;;;27.70;23.85;;;;;;;3.29;100.00;99379.19;2067587;28;20682;-69
2022/04/12 00:08:17;;;;;;;29.27;24.08;;;;;;;3.29;100.00;99376.53;2066597;28;20382;-69
2022/04/12 00:09:18;;;;;;;32.45;24.50;;;;;;;3.28;100.00;99380.22;2066959;28;20207;-69
2022/04/12 00:10:23;;;;;;;31.40;24.83;;;;;;;3.26;100.00;99380.47;2066625;28;20193;-69
2022/04/12 00:11:25;;;;;;;28.17;24.05;;;;;;;3.26;100.00;99377.84;2066786;28;20217;-69
2022/04/12 00:12:27;;;;;;;32.58;24.88;;;;;;;3.27;100.00;99370.72;2066628;28;20291;-69
2022/04/12 00:13:28;;;;;;;29.17;24.63;;;;;;;3.26;100.00;99369.13;2066814;28;20589;-68
2022/04/12 00:14:29;;;;;;;29.60;24.63;;;;;;;3.27;100.00;99376.78;2067263;28;20188;-69
2022/04/12 00:15:30;;;;;;;30.20;24.48;;;;;;;3.19;100.00;99369.28;2067270;28;20189;-68
2022/04/12 00:16:35;;;;;;;33.30;25.67;;;;;;;3.19;100.00;99365.84;2074735;28;20568;-69
2022/04/12 00:19:05;;;;;;;28.67;24.88;;;;;;;3.14;100.00;99369.22;2066887;28;20244;-69
2022/04/12 00:20:07;;;;;;;35.08;27.15;;;;;;;3.15;100.00;99367.38;2067372;28;20181;-69
2022/04/12 00:21:09;;;;;;;37.05;28.60;;;;;;;3.18;100.00;99372.16;2074069;28;20200;-69
2022/04/12 00:22:11;;;;;;;36.45;26.17;;;;;;;3.13;100.00;99372.91;2074924;28;20223;-70
2022/04/12 00:23:14;;;;;;;39.25;26.08;;;;;;;3.14;100.00;99366.56;2067201;28;20189;-69
2022/04/12 00:24:17;;;;;;;31.92;26.02;;;;;;;3.11;100.00;99367.03;2067400;28;20184;-70
2022/04/12 00:25:22;;;;;;;33.27;25.77;;;;;;;3.10;100.00;99360.97;2066512;28;20200;-69
2022/04/12 00:26:23;;;;;;;39.58;28.25;;;;;;;3.13;100.00;99362.34;2066644;28;20237;-69
2022/04/12 00:27:26;;;;;;;43.17;30.00;;;;;;;3.22;100.00;99354.84;2067035;28;20225;-68
2022/04/12 00:28:28;;;;;;;49.63;33.22;;;;;;;3.42;100.00;99359.59;2067259;28;20201;-69
2022/04/12 00:29:30;;;;;;;46.22;31.80;;;;;;;3.40;100.00;99355.38;2067269;28;20279;-69
2022/04/12 00:30:32;;;;;;;47.63;31.80;;;;;;;3.56;100.00;99353.75;2067127;28;20208;-69
2022/04/12 00:31:34;;;;;;;44.30;30.13;;;;;;;3.59;100.00;99355.91;2067144;28;20215;-69
2022/04/12 00:32:35;;;;;;;48.40;32.25;;;;;;;3.59;100.00;99355.91;2067135;28;20193;-69
2022/04/12 00:33:37;;;;;;;42.17;31.63;;;;;;;3.52;100.00;99357.13;2066454;28;20205;-69
2022/04/12 00:34:38;;;;;;;44.63;30.15;;;;;;;3.44;100.00;99360.97;2066571;28;20200;-69
2022/04/12 00:35:40;;;;;;;42.20;29.43;;;;;;;3.34;100.00;99347.63;2066370;28;20189;-69
2022/04/12 00:36:41;;;;;;;43.03;29.85;;;;;;;3.28;100.00;99359.94;2066217;28;20236;-70
2022/04/12 00:37:46;;;;;;;38.35;28.08;;;;;;;3.24;100.00;99358.03;2067149;28;20193;-69
2022/04/12 00:38:48;;;;;;;40.63;28.77;;;;;;;3.18;100.00;99354.50;2066876;28;20236;-69
2022/04/12 00:39:49;;;;;;;42.60;30.02;;;;;;;3.13;100.00;99354.44;2066355;28;20235;-69
2022/04/12 00:40:51;;;;;;;44.37;30.00;;;;;;;3.11;100.00;99351.22;2066508;28;20240;-69
2022/04/12 00:41:52;;;;;;;40.55;30.58;;;;;;;3.08;100.00;99351.72;2067086;28;20200;-69
2022/04/12 00:42:56;;;;;;;45.90;32.10;;;;;;;3.09;100.00;99348.03;2067236;28;20216;-69
2022/04/12 00:43:57;;;;;;;47.38;30.55;;;;;;;3.07;100.00;99352.75;2067041;28;20674;-69
2022/04/12 00:44:59;;;;;;;43.93;31.33;;;;;;;3.07;100.00;99353.56;2067034;28;20635;-69
2022/04/12 00:46:01;;;;;;;46.38;31.40;;;;;;;3.07;100.00;99353.56;2067028;28;20651;-69
2022/04/12 00:47:02;;;;;;;44.03;31.70;;;;;;;3.06;100.00;99351.16;2067190;28;20216;-69
2022/04/12 00:48:04;;;;;;;41.00;31.00;;;;;;;3.08;100.00;99355.16;2067215;28;20252;-68
2022/04/12 00:49:05;;;;;;;46.25;32.17;;;;;;;3.08;100.00;99354.34;2066971;28;20197;-68
2022/04/12 00:50:10;;;;;;;47.77;32.27;;;;;;;3.08;100.00;99349.06;2066957;28;20197;-69
2022/04/12 00:51:14;;;;;;;46.13;30.52;;;;;;;3.06;100.00;99345.88;2073512;28;20283;-68
2022/04/12 00:52:15;;;;;;;50.40;32.55;;;;;;;3.07;100.00;99347.47;2065856;28;20201;-68
2022/04/12 00:53:16;;;;;;;43.77;30.83;;;;;;;3.11;100.00;99356.50;2066429;28;20220;-68
2022/04/12 00:54:19;;;;;;;46.35;32.05;;;;;;;3.08;100.00;99341.16;2065867;28;20351;-68
2022/04/12 00:55:21;;;;;;;44.95;32.22;;;;;;;3.10;100.00;99352.25;2066516;28;20624;-69
2022/04/12 00:56:22;;;;;;;41.53;31.48;;;;;;;3.09;100.00;99354.09;2067054;28;20647;-68
2022/04/12 00:57:24;;;;;;;46.83;32.70;;;;;;;3.10;100.00;99358.34;2066947;28;20558;-68
2022/04/12 00:58:28;;;;;;;43.15;31.40;;;;;;;3.10;100.00;99352.25;2066987;28;20201;-68
2022/04/12 00:59:31;;;;;;;41.97;31.13;;;;;;;3.11;100.00;99351.22;2066890;28;20200;-68
2022/04/12 01:00:33;;;;;;;39.83;30.58;;;;;;;3.12;100.00;99355.44;2066005;28;20197;-69
2022/04/12 01:01:34;;;;;;;51.42;34.25;;;;;;;3.12;100.00;99355.44;2066579;28;20197;-69
2022/04/12 01:02:35;;;;;;;51.83;33.80;;;;;;;3.11;100.00;99359.13;2066922;28;20300;-69
2022/04/12 01:03:36;;;;;;;44.83;32.83;;;;;;;3.11;100.00;99354.66;2066219;28;20263;-68
2022/04/12 01:04:38;;;;;;;43.67;31.97;;;;;;;3.13;100.00;99351.81;2066323;28;20255;-68
2022/04/12 01:05:45;;;;;;;46.03;31.98;;;;;;;3.11;100.00;99352.03;2066836;28;20466;-69
2022/04/12 01:06:46;;;;;;;46.58;33.42;;;;;;;3.18;100.00;99351.06;2065924;28;20251;-68
2022/04/12 01:07:48;;;;;;;51.05;33.05;;;;;;;3.19;100.00;99344.75;2066411;28;20264;-68
2022/04/12 01:08:48;;;;;;;51.38;32.72;;;;;;;3.20;100.00;99339.22;2074284;28;20204;-68
2022/04/12 01:09:53;;;;;;;46.00;33.03;;;;;;;3.20;100.00;99341.88;2074347;28;20733;-68
2022/04/12 01:10:54;;;;;;;46.95;33.08;;;;;;;3.21;100.00;99338.19;2074273;28;20203;-68
2022/04/12 01:12:08;;;;;;;45.03;32.97;;;;;;;3.24;100.00;99348.28;2074306;28;20185;-69
2022/04/12 01:13:09;;;;;;;44.67;32.08;;;;;;;3.22;100.00;99334.53;2066199;28;20197;-69
2022/04/12 01:14:14;;;;;;;39.90;30.37;;;;;;;3.21;100.00;99335.56;2058103;28;20221;-69
2022/04/12 01:15:16;;;;;;;44.15;31.48;;;;;;;3.19;100.00;99337.63;2066291;28;20197;-68
2022/04/12 01:16:18;;;;;;;42.78;30.70;;;;;;;3.20;100.00;99336.59;2066753;28;20225;-68
2022/04/12 01:17:20;;;;;;;43.03;30.83;;;;;;;3.15;100.00;99339.16;2065761;28;20774;-69
2022/04/12 01:18:23;;;;;;;42.60;31.25;;;;;;;3.17;100.00;99337.09;2066253;28;20193;-69
2022/04/12 01:19:24;;;;;;;44.65;31.08;;;;;;;3.14;100.00;99329.66;2066097;28;20193;-68
2022/04/12 01:20:29;;;;;;;41.97;30.40;;;;;;;3.19;100.00;99342.91;2066426;28;20269;-68
2022/04/12 01:22:00;;;;;;;42.55;31.05;;;;;;;3.19;100.00;99332.38;2066386;28;20279;-68
2022/04/12 01:23:07;;;;;;;39.58;29.67;;;;;;;3.35;100.00;99333.41;2066110;28;20185;-69
2022/04/12 01:24:10;;;;;;;40.00;30.75;;;;;;;3.32;100.00;99331.25;2058827;28;20194;-68
2022/04/12 01:25:12;;;;;;;41.67;30.20;;;;;;;3.31;100.00;99341.00;2058089;28;20248;-68
2022/04/12 01:26:15;;;;;;;42.60;29.60;;;;;;;3.29;100.00;99339.63;2058160;28;20194;-68
2022/04/12 01:27:15;;;;;;;43.60;30.80;;;;;;;3.27;100.00;99342.50;2058024;28;20237;-68
2022/04/12 01:28:17;;;;;;;45.93;31.57;;;;;;;3.26;100.00;99343.56;2066274;28;20180;-68
2022/04/12 01:29:18;;;;;;;43.03;30.88;;;;;;;3.24;100.00;99342.22;2065671;28;20668;-68
2022/04/12 01:30:19;;;;;;;41.73;30.33;;;;;;;3.21;100.00;99343.47;2066118;28;20555;-68
2022/04/12 01:31:22;;;;;;;44.30;30.33;;;;;;;3.20;100.00;99346.34;2066712;28;20193;-68
2022/04/12 01:32:25;;;;;;;46.00;30.88;;;;;;;3.20;100.00;99348.97;2065197;28;20201;-68
2022/04/12 01:33:27;;;;;;;45.17;30.23;;;;;;;3.18;100.00;99349.22;2057968;28;20201;-68
2022/04/12 01:34:28;;;;;;;38.47;30.77;;;;;;;3.18;100.00;99346.59;2066139;28;20193;-68
2022/04/12 01:35:30;;;;;;;45.00;30.90;;;;;;;3.19;100.00;99345.53;2065646;28;20201;-68
2022/04/12 01:36:31;;;;;;;36.03;29.20;;;;;;;3.21;100.00;99338.19;2057582;28;20229;-68
2022/04/12 01:37:32;;;;;;;39.73;29.23;;;;;;;3.22;100.00;99339.81;2066077;28;20227;-68
2022/04/12 01:38:33;;;;;;;44.05;30.58;;;;;;;3.28;100.00;99349.38;2066871;28;20200;-68
2022/04/12 01:39:37;;;;;;;37.55;29.38;;;;;;;3.27;100.00;99341.72;2065937;28;20212;-69
2022/04/12 01:40:37;;;;;;;41.83;30.15;;;;;;;3.29;100.00;99344.91;2058063;28;20213;-68
2022/04/12 01:41:39;;;;;;;40.27;29.67;;;;;;;3.27;100.00;99347.78;2066074;28;20189;-68
2022/04/12 01:42:40;;;;;;;38.75;28.67;;;;;;;3.29;100.00;99352.81;2065872;28;20683;-69
2022/04/12 01:43:41;;;;;;;45.13;29.87;;;;;;;3.27;100.00;99350.41;2057802;28;20641;-68
2022/04/12 01:44:42;;;;;;;41.90;29.92;;;;;;;3.29;100.00;99358.09;2065949;28;20201;-67
2022/04/12 01:45:44;;;;;;;38.13;29.00;;;;;;;3.28;100.00;99352.00;2074323;28;20192;-68
2022/04/12 01:46:45;;;;;;;33.78;26.95;;;;;;;3.35;100.00;99354.50;2066579;28;20197;-68
2022/04/12 01:47:47;;;;;;;38.03;29.10;;;;;;;3.32;100.00;99350.50;2065453;28;20236;-68
2022/04/12 01:48:49;;;;;;;40.97;28.83;;;;;;;3.30;100.00;99349.13;2057907;28;20292;-68
2022/04/12 01:49:51;;;;;;;39.25;29.08;;;;;;;3.27;100.00;99352.25;2065997;28;20185;-68
2022/04/12 01:50:52;;;;;;;39.28;28.45;;;;;;;3.22;100.00;99352.19;2073357;28;20228;-70
2022/04/12 01:51:53;;;;;;;34.73;28.00;;;;;;;3.22;100.00;99355.63;2074004;28;20207;-68
2022/04/12 01:52:55;;;;;;;38.70;28.65;;;;;;;3.19;100.00;99358.72;2066504;28;20204;-69
2022/04/12 01:53:57;;;;;;;42.13;29.52;;;;;;;3.18;100.00;99356.34;2065834;28;20196;-68
2022/04/12 01:55:00;;;;;;;39.35;29.08;;;;;;;3.18;100.00;99356.34;2065925;28;20208;-68
2022/04/12 01:56:02;;;;;;;36.38;28.20;;;;;;;3.18;100.00;99356.34;2065813;28;20193;-68
2022/04/12 01:57:03;;;;;;;41.55;29.98;;;;;;;3.17;100.00;99352.91;2066096;28;20645;-69
2022/04/12 01:58:05;;;;;;;38.40;29.50;;;;;;;3.14;100.00;99353.41;2066476;28;20189;-69
2022/04/12 01:59:05;;;;;;;41.90;29.02;;;;;;;3.15;100.00;99355.00;2066463;28;20200;-68
2022/04/12 02:00:10;;;;;;;43.87;29.57;;;;;;;3.14;100.00;99360.50;2073927;28;20196;-68
2022/04/12 02:01:14;;;;;;;35.35;28.90;;;;;;;3.12;100.00;99358.88;2073318;28;20308;-68
2022/04/12 02:02:16;;;;;;;38.70;29.47;;;;;;;3.14;100.00;99366.56;2066344;28;20208;-68
2022/04/12 02:03:16;;;;;;;42.28;29.85;;;;;;;3.12;100.00;99368.63;2066629;28;20428;-68
2022/04/12 02:04:18;;;;;;;44.97;30.90;;;;;;;3.15;100.00;99370.81;2065749;28;20224;-68
2022/04/12 02:05:20;;;;;;;44.17;30.92;;;;;;;3.11;100.00;99365.19;2065941;28;20193;-68
2022/04/12 02:06:24;;;;;;;39.15;30.15;;;;;;;3.12;100.00;99368.63;2065936;28;20220;-69
2022/04/12 02:07:26;;;;;;;37.72;30.00;;;;;;;3.12;100.00;99374.69;2073817;28;20207;-68
2022/04/12 02:08:31;;;;;;;35.92;28.45;;;;;;;3.11;100.00;99372.31;2073388;28;20184;-69
2022/04/12 02:09:32;;;;;;;42.85;29.30;;;;;;;3.11;100.00;99369.66;2065691;28;20201;-68
2022/04/12 02:10:35;;;;;;;40.00;30.13;;;;;;;3.11;100.00;99369.66;2065784;28;20192;-68
2022/04/12 02:11:36;;;;;;;47.30;30.48;;;;;;;3.12;100.00;99376.53;2066365;28;20197;-69
2022/04/12 02:12:37;;;;;;;48.47;30.43;;;;;;;3.12;100.00;99379.97;2065854;28;20189;-68
2022/04/12 02:13:39;;;;;;;40.70;30.05;;;;;;;3.12;100.00;99376.53;2066349;28;20192;-68
2022/04/12 02:14:41;;;;;;;41.67;29.27;;;;;;;3.12;100.00;99387.09;2066318;28;20193;-69
2022/04/12 02:15:43;;;;;;;41.47;29.67;;;;;;;3.11;100.00;99381.00;2066284;28;20678;-68
2022/04/12 02:16:46;;;;;;;40.55;29.42;;;;;;;3.11;100.00;99375.75;2066297;28;20204;-69
2022/04/12 02:17:46;;;;;;;39.92;29.40;;;;;;;3.10;100.00;99370.72;2065580;28;20196;-68
2022/04/12 02:18:48;;;;;;;39.63;29.40;;;;;;;3.10;100.00;99381.25;2065753;28;20215;-67
2022/04/12 02:19:48;;;;;;;36.50;28.42;;;;;;;3.06;100.00;99367.78;2065564;28;20205;-68
2022/04/12 02:20:50;;;;;;;42.70;28.17;;;;;;;3.06;100.00;99372.25;2065888;28;20699;-68
2022/04/12 02:21:53;;;;;;;37.53;28.40;;;;;;;3.05;100.00;99375.91;2065863;28;20229;-69
2022/04/12 02:22:55;;;;;;;39.05;28.80;;;;;;;3.04;100.00;99374.28;2066197;28;20213;-68
2022/04/12 02:23:56;;;;;;;40.60;28.30;;;;;;;3.02;100.00;99373.75;2065568;28;20201;-68
2022/04/12 02:24:57;;;;;;;41.77;29.23;;;;;;;3.00;100.00;99376.63;2065755;28;20686;-68
2022/04/12 02:25:59;;;;;;;48.38;29.52;;;;;;;2.99;100.00;99390.03;2066215;28;20723;-69
2022/04/12 02:27:01;;;;;;;42.55;29.98;;;;;;;3.04;100.00;99384.84;2066045;28;20665;-69
2022/04/12 02:28:04;;;;;;;43.20;29.40;;;;;;;3.07;100.00;99392.28;2066167;28;20229;-68
2022/04/12 02:29:07;;;;;;;45.05;30.63;;;;;;;3.07;100.00;99382.53;2065155;28;20228;-69
2022/04/12 02:30:09;;;;;;;43.55;30.10;;;;;;;3.08;100.00;99385.97;2065610;28;20200;-68
2022/04/12 02:31:11;;;;;;;42.85;30.27;;;;;;;3.08;100.00;99386.78;2066191;28;20555;-68
2022/04/12 02:32:11;;;;;;;49.97;30.88;;;;;;;3.07;100.00;99389.66;2065456;28;20208;-69
2022/04/12 02:33:13;;;;;;;40.83;30.07;;;;;;;3.05;100.00;99387.25;2065607;28;20212;-68
2022/04/12 02:34:14;;;;;;;39.70;29.73;;;;;;;3.06;100.00;99390.69;2066208;28;20204;-68
2022/04/12 02:35:16;;;;;;;45.10;29.60;;;;;;;3.06;100.00;99388.06;2066167;28;20228;-68
2022/04/12 02:36:17;;;;;;;41.95;29.65;;;;;;;3.04;100.00;99388.31;2072775;28;20311;-69
2022/04/12 02:37:19;;;;;;;45.10;31.02;;;;;;;3.06;100.00;99388.06;2073633;28;20647;-67
2022/04/12 02:38:19;;;;;;;42.67;29.70;;;;;;;3.08;100.00;99391.25;2065471;28;20205;-69
2022/04/12 02:39:21;;;;;;;46.10;31.40;;;;;;;3.08;100.00;99396.53;2065614;28;20276;-68
2022/04/12 02:40:22;;;;;;;44.25;31.58;;;;;;;3.10;100.00;99392.59;2073575;28;20615;-68
2022/04/12 02:41:25;;;;;;;43.03;31.33;;;;;;;3.09;100.00;99401.56;2073800;28;20258;-68
2022/04/12 02:42:29;;;;;;;48.97;31.65;;;;;;;3.08;100.00;99402.59;2066188;28;20193;-68
2022/04/12 02:43:34;;;;;;;46.40;31.58;;;;;;;3.08;100.00;99401.78;2066141;28;20184;-68
2022/04/12 02:44:34;;;;;;;43.45;30.33;;;;;;;3.09;100.00;99395.47;2066183;28;20239;-68
2022/04/12 02:45:36;;;;;;;40.03;30.57;;;;;;;3.05;100.00;99395.16;2066107;28;20660;-68
2022/04/12 02:46:37;;;;;;;44.97;32.45;;;;;;;3.05;100.00;99400.44;2066119;28;20189;-68
2022/04/12 02:47:38;;;;;;;42.07;30.73;;;;;;;3.01;100.00;99398.50;2065404;28;20232;-68
2022/04/12 02:48:39;;;;;;;40.33;30.45;;;;;;;3.00;100.00;99389.81;2065485;28;20207;-68
2022/04/12 02:49:41;;;;;;;45.17;30.75;;;;;;;2.98;100.00;99396.34;2066033;28;20220;-69
2022/04/12 02:50:42;;;;;;;41.50;31.13;;;;;;;2.98;100.00;99399.00;2066059;28;20196;-68
2022/04/12 02:51:45;;;;;;;44.60;30.40;;;;;;;3.00;100.00;99404.81;2065771;28;20224;-68
2022/04/12 02:52:46;;;;;;;43.13;30.65;;;;;;;2.98;100.00;99402.44;2066019;28;20193;-68
2022/04/12 02:53:48;;;;;;;44.00;30.67;;;;;;;3.01;100.00;99395.88;2065996;28;20193;-69
2022/04/12 02:54:48;;;;;;;47.45;31.60;;;;;;;3.00;100.00;99404.81;2065350;28;20574;-68
2022/04/12 02:55:50;;;;;;;43.37;30.37;;;;;;;2.99;100.00;99398.75;2056995;28;20233;-68
2022/04/12 02:56:53;;;;;;;44.75;31.20;;;;;;;2.99;100.00;99404.03;2065651;28;20189;-68
2022/04/12 02:57:55;;;;;;;52.63;31.98;;;;;;;2.97;100.00;99400.81;2066029;28;20204;-69
2022/04/12 02:58:55;;;;;;;43.53;31.83;;;;;;;2.98;100.00;99401.63;2064961;28;20200;-68
2022/04/12 02:59:57;;;;;;;40.73;31.23;;;;;;;2.98;100.00;99407.69;2065471;28;20268;-69
2022/04/12 03:00:58;;;;;;;42.13;32.03;;;;;;;2.97;100.00;99405.31;2065328;28;20573;-68
2022/04/12 03:01:59;;;;;;;39.13;31.67;;;;;;;2.98;100.00;99409.53;2057300;28;20292;-68
2022/04/12 03:03:00;;;;;;;45.28;31.38;;;;;;;2.98;100.00;99406.91;2056979;28;20251;-68
2022/04/12 03:04:02;;;;;;;43.60;31.67;;;;;;;2.93;100.00;99399.69;2057295;28;20197;-68
2022/04/12 03:05:03;;;;;;;46.45;31.75;;;;;;;2.96;100.00;99404.50;2065368;28;20224;-68
2022/04/12 03:06:05;;;;;;;47.40;31.75;;;;;;;2.94;100.00;99403.13;2065474;28;20275;-68
2022/04/12 03:07:06;;;;;;;40.92;30.63;;;;;;;2.92;100.00;99402.56;2065988;28;20604;-68
2022/04/12 03:08:08;;;;;;;40.70;30.63;;;;;;;2.90;100.00;99404.66;2066185;28;20259;-68
2022/04/12 03:09:10;;;;;;;43.63;31.60;;;;;;;2.87;100.00;99410.38;2065908;28;20355;-69
2022/04/12 03:10:15;;;;;;;48.03;31.73;;;;;;;2.83;100.00;99404.78;2065986;28;20191;-68
2022/04/12 03:11:16;;;;;;;43.33;31.70;;;;;;;2.82;100.00;99403.19;2065959;28;20202;-68
2022/04/12 03:12:19;;;;;;;45.77;31.67;;;;;;;2.80;100.00;99406.06;2065937;28;20189;-68
2022/04/12 03:13:20;;;;;;;43.85;29.92;;;;;;;2.80;100.00;99413.97;2065254;28;20201;-69
2022/04/12 03:14:21;;;;;;;45.70;31.27;;;;;;;2.79;100.00;99408.94;2057273;28;20248;-68
2022/04/12 03:15:23;;;;;;;46.40;30.90;;;;;;;2.77;100.00;99416.25;2065336;28;20655;-68
2022/04/12 03:16:25;;;;;;;47.63;30.88;;;;;;;2.77;100.00;99408.34;2065263;28;20284;-68
2022/04/12 03:17:28;;;;;;;48.35;32.03;;;;;;;2.78;100.00;99416.03;2065413;28;20651;-68
2022/04/12 03:18:29;;;;;;;46.83;32.53;;;;;;;2.77;100.00;99409.16;2066152;28;20719;-68
2022/04/12 03:19:30;;;;;;;45.13;31.63;;;;;;;2.76;100.00;99404.94;2065881;28;20601;-68
2022/04/12 03:20:32;;;;;;;43.13;31.40;;;;;;;2.76;100.00;99402.28;2065255;28;20599;-68
2022/04/12 03:21:34;;;;;;;45.13;32.15;;;;;;;2.78;100.00;99404.69;2064847;28;20229;-69
2022/04/12 03:22:35;;;;;;;44.70;31.63;;;;;;;2.77;100.00;99406.53;2065211;28;20266;-68
2022/04/12 03:23:37;;;;;;;42.77;29.77;;;;;;;2.77;100.00;99405.72;2057357;28;20236;-68
2022/04/12 03:24:40;;;;;;;41.15;30.20;;;;;;;2.75;100.00;99411.22;2057422;28;20209;-68
2022/04/12 03:25:42;;;;;;;41.83;30.92;;;;;;;2.74;100.00;99407.00;2065414;28;20193;-68
2022/04/12 03:26:42;;;;;;;40.70;30.48;;;;;;;2.71;100.00;99402.22;2065198;28;20205;-69
2022/04/12 03:27:45;;;;;;;42.97;30.57;;;;;;;2.70;100.00;99400.63;2065020;28;20291;-68
2022/04/12 03:28:46;;;;;;;43.88;30.02;;;;;;;2.69;100.00;99401.63;2073375;28;20183;-68
2022/04/12 03:29:49;;;;;;;44.37;30.37;;;;;;;2.69;100.00;99406.09;2065876;28;20659;-68
2022/04/12 03:30:51;;;;;;;45.95;31.65;;;;;;;2.68;100.00;99400.03;2065149;28;20248;-68
2022/04/12 03:31:54;;;;;;;39.00;29.38;;;;;;;2.67;100.00;99402.91;2057357;28;20205;-68
2022/04/12 03:32:55;;;;;;;44.50;31.15;;;;;;;2.66;100.00;99401.31;2065265;28;20185;-69
2022/04/12 03:33:57;;;;;;;43.67;29.85;;;;;;;2.65;100.00;99400.50;2065099;28;20611;-68
2022/04/12 03:34:57;;;;;;;53.00;30.00;;;;;;;2.65;100.00;99408.41;2065345;28;20216;-69
2022/04/12 03:35:59;;;;;;;38.43;29.80;;;;;;;2.66;100.00;99406.59;2064596;28;20291;-69
2022/04/12 03:37:02;;;;;;;40.33;29.88;;;;;;;2.64;100.00;99406.03;2057371;28;20252;-69
2022/04/12 03:38:04;;;;;;;39.90;29.80;;;;;;;2.64;100.00;99406.81;2065293;28;20691;-68
2022/04/12 03:39:05;;;;;;;41.20;30.55;;;;;;;2.63;100.00;99407.84;2073320;28;20242;-68
2022/04/12 03:40:08;;;;;;;43.47;30.83;;;;;;;2.62;100.00;99408.91;2065960;28;20197;-69
2022/04/12 03:41:08;;;;;;;45.00;31.58;;;;;;;2.61;100.00;99407.31;2073291;28;20196;-69
2022/04/12 03:42:11;;;;;;;51.30;32.47;;;;;;;2.60;100.00;99418.84;2073569;28;20780;-69
2022/04/12 03:43:13;;;;;;;44.47;31.05;;;;;;;2.57;100.00;99416.69;2065767;28;20288;-68
2022/04/12 03:44:17;;;;;;;41.20;30.88;;;;;;;2.55;100.00;99410.88;2065831;28;20324;-68
2022/04/12 03:45:19;;;;;;;41.40;30.70;;;;;;;2.54;100.00;99412.69;2065764;28;20220;-68
2022/04/12 03:46:21;;;;;;;45.90;31.10;;;;;;;2.54;100.00;99410.06;2065113;28;20593;-68
2022/04/12 03:47:22;;;;;;;41.40;30.27;;;;;;;2.55;100.00;99402.97;2065326;28;20197;-69
2022/04/12 03:48:24;;;;;;;44.77;32.10;;;;;;;2.52;100.00;99413.97;2065047;28;20283;-68
2022/04/12 03:49:24;;;;;;;45.58;32.70;;;;;;;2.49;100.00;99402.06;2065368;28;20196;-68
2022/04/12 03:50:26;;;;;;;43.73;32.00;;;;;;;2.46;100.00;99399.91;2065090;28;20189;-68
2022/04/12 03:51:27;;;;;;;44.50;32.05;;;;;;;2.40;100.00;99405.31;2056755;28;20221;-68
2022/04/12 03:52:29;;;;;;;47.17;32.42;;;;;;;2.40;100.00;99405.31;2057084;28;20711;-68
2022/04/12 03:53:30;;;;;;;49.15;33.13;;;;;;;2.35;100.00;99400.75;2056739;28;20259;-68
2022/04/12 03:54:32;;;;;;;41.07;30.93;;;;;;;2.34;100.00;99400.97;2057052;28;20256;-69
2022/04/12 03:55:35;;;;;;;44.30;31.75;;;;;;;2.31;100.00;99404.06;2065238;28;20707;-69
2022/04/12 03:56:37;;;;;;;48.75;32.13;;;;;;;2.29;100.00;99395.63;2065733;28;20181;-68
2022/04/12 03:57:38;;;;;;;39.33;30.30;;;;;;;2.28;100.00;99402.72;2065755;28;20193;-69
2022/04/12 03:58:44;;;;;;;49.72;33.38;;;;;;;2.22;100.00;99393.91;2065763;28;20200;-68
2022/04/12 03:59:45;;;;;;;46.30;33.17;;;;;;;2.21;100.00;99408.09;2073115;28;20196;-70
2022/04/12 04:00:46;;;;;;;44.33;31.70;;;;;;;2.17;100.00;99398.25;2073259;28;20251;-69
2022/04/12 04:01:49;;;;;;;45.60;30.60;;;;;;;2.17;100.00;99404.34;2065741;28;20276;-69
2022/04/12 04:02:50;;;;;;;45.35;31.85;;;;;;;2.19;100.00;99409.38;2073166;28;20230;-69
2022/04/12 04:03:52;;;;;;;48.60;32.00;;;;;;;2.20;100.00;99403.06;2065030;28;20773;-69
2022/04/12 04:04:53;;;;;;;44.85;32.40;;;;;;;2.20;100.00;99414.41;2064666;28;20691;-69
2022/04/12 04:05:56;;;;;;;44.67;30.77;;;;;;;2.19;100.00;99415.44;2072589;28;20275;-69
2022/04/12 04:06:58;;;;;;;44.88;31.67;;;;;;;2.18;100.00;99416.47;2065846;28;20178;-69
2022/04/12 04:08:00;;;;;;;48.70;32.00;;;;;;;2.23;100.00;99415.75;2065945;28;20273;-68
2022/04/12 04:09:01;;;;;;;50.15;33.20;;;;;;;2.25;100.00;99421.59;2064658;28;20204;-68
2022/04/12 04:10:03;;;;;;;46.20;32.00;;;;;;;2.25;100.00;99425.00;2065055;28;20200;-70
2022/04/12 04:11:04;;;;;;;52.90;33.75;;;;;;;2.23;100.00;99421.81;2065754;28;20201;-68
2022/04/12 04:12:07;;;;;;;46.35;31.30;;;;;;;2.26;100.00;99424.00;2065682;28;20238;-69
2022/04/12 04:13:11;;;;;;;50.13;32.70;;;;;;;2.26;100.00;99415.31;2065717;28;20192;-69
2022/04/12 04:14:15;;;;;;;44.53;31.88;;;;;;;2.30;100.00;99415.63;2065010;28;20256;-69
2022/04/12 04:15:18;;;;;;;45.20;32.08;;;;;;;2.25;100.00;99414.47;2065103;28;20552;-70
2022/04/12 04:16:18;;;;;;;46.47;31.77;;;;;;;2.21;100.00;99418.63;2065752;28;20189;-69
2022/04/12 04:17:21;;;;;;;50.83;32.27;;;;;;;2.18;100.00;99415.66;2065654;28;20275;-69
2022/04/12 04:18:22;;;;;;;44.35;31.23;;;;;;;2.16;100.00;99423.78;2065721;28;20200;-69
2022/04/12 04:19:24;;;;;;;49.87;30.63;;;;;;;2.10;100.00;99410.75;2065653;28;20193;-69
2022/04/12 04:20:25;;;;;;;45.80;31.17;;;;;;;2.07;100.00;99419.91;2064567;28;20201;-69
2022/04/12 04:21:27;;;;;;;42.33;30.63;;;;;;;2.02;100.00;99411.91;2064545;28;20662;-69
2022/04/12 04:22:27;;;;;;;49.85;33.58;;;;;;;1.98;100.00;99410.75;2065852;28;20652;-69
2022/04/12 04:23:29;;;;;;;45.40;31.30;;;;;;;1.98;100.00;99416.03;2065571;28;20552;-69
2022/04/12 04:24:30;;;;;;;48.08;33.22;;;;;;;1.93;100.00;99410.66;2065852;28;20193;-69
2022/04/12 04:25:32;;;;;;;45.87;32.93;;;;;;;1.90;100.00;99417.16;2064990;28;20205;-69
2022/04/12 04:26:35;;;;;;;49.53;32.88;;;;;;;1.90;100.00;99424.28;2057019;28;20224;-69
2022/04/12 04:27:41;;;;;;;44.92;33.50;;;;;;;1.88;100.00;99427.13;2064889;28;20193;-69
2022/04/12 04:28:44;;;;;;;49.53;32.28;;;;;;;1.87;100.00;99424.75;2065800;28;20200;-69
2022/04/12 04:29:47;;;;;;;52.97;35.13;;;;;;;1.86;100.00;99425.78;2064952;28;20609;-69
2022/04/12 04:30:49;;;;;;;48.22;33.90;;;;;;;1.86;100.00;99428.41;2065030;28;20193;-69
2022/04/12 04:31:50;;;;;;;51.08;34.80;;;;;;;1.84;100.00;99428.63;2065747;28;20192;-69
2022/04/12 04:32:52;;;;;;;55.03;35.77;;;;;;;1.85;100.00;99424.97;2064904;28;20290;-68
2022/04/12 04:33:54;;;;;;;46.03;33.25;;;;;;;1.87;100.00;99419.47;2057234;28;20441;-69
2022/04/12 04:34:56;;;;;;;48.97;34.03;;;;;;;1.87;100.00;99422.09;2056552;28;20205;-69
2022/04/12 04:35:57;;;;;;;46.17;33.05;;;;;;;1.91;100.00;99431.13;2065243;28;20667;-69
2022/04/12 04:36:59;;;;;;;51.13;34.10;;;;;;;1.92;100.00;99433.56;2066478;28;20643;-68
2022/04/12 04:37:59;;;;;;;50.40;35.05;;;;;;;1.93;100.00;99422.00;2066740;28;20321;-69
2022/04/12 04:39:01;;;;;;;51.93;35.37;;;;;;;1.96;100.00;99433.88;2067099;28;20871;-69
2022/04/12 04:40:03;;;;;;;50.75;34.55;;;;;;;1.99;100.00;99436.84;2066361;28;20201;-69
2022/04/12 04:41:05;;;;;;;53.88;33.35;;;;;;;2.01;100.00;99433.22;2066604;28;20231;-69
2022/04/12 04:42:08;;;;;;;55.72;35.70;;;;;;;2.05;100.00;99440.38;2066387;28;20201;-69
2022/04/12 04:43:10;;;;;;;55.10;35.08;;;;;;;2.05;100.00;99434.34;2066479;28;20580;-69
2022/04/12 04:44:11;;;;;;;52.60;35.22;;;;;;;2.10;100.00;99442.34;2067159;28;20633;-69
2022/04/12 04:45:14;;;;;;;52.33;35.00;;;;;;;2.12;100.00;99440.28;2067205;28;20193;-68
2022/04/12 04:46:15;;;;;;;49.60;36.03;;;;;;;2.15;100.00;99445.88;2066882;28;20189;-69